Time;durP1;ratioP1;P1;durP2;ratioP2;P2;SDS_P1;SDS_P2;PMS_P1;PMS_P2;Temp;Humidity;BMP_temperature;BMP_pressure;BME280_temperature;BME280_humidity;BME280_pressure;Samples;Min_cycle;Max_cycle;Signal;HPM_P1;HPM_P2
2022/09/09 00:02:25;;;;;;;1.95;1.25;;;;;;;16.72;100.00;100069.72;5555744;32;32327;-70
2022/09/09 00:05:44;;;;;;;2.42;1.37;;;;;;;16.73;100.00;100069.53;5569592;32;34271;-70
2022/09/09 00:09:06;;;;;;;2.33;1.20;;;;;;;16.69;100.00;100078.19;5569394;32;33838;-70
2022/09/09 00:12:14;;;;;;;1.40;1.20;;;;;;;16.79;100.00;100067.84;5569546;32;33895;-68
2022/09/09 00:15:20;;;;;;;1.83;1.12;;;;;;;16.73;100.00;100055.31;5568907;32;34584;-69
2022/09/09 00:18:31;;;;;;;4.65;1.20;;;;;;;16.73;100.00;100056.12;5555659;32;32623;-69
2022/09/09 00:21:36;;;;;;;2.40;1.40;;;;;;;16.75;100.00;100063.97;5569433;32;35152;-70
2022/09/09 00:24:45;;;;;;;2.78;1.02;;;;;;;16.71;100.00;100066.22;5569355;32;34197;-70
2022/09/09 00:27:50;;;;;;;2.58;1.40;;;;;;;16.72;100.00;100061.69;5569307;32;33895;-69
2022/09/09 00:30:55;;;;;;;1.30;1.10;;;;;;;16.76;100.00;100073.63;5569279;32;34463;-68
2022/09/09 00:34:04;;;;;;;2.00;1.08;;;;;;;16.70;100.00;100069.94;5569537;32;34564;-69
2022/09/09 00:37:09;;;;;;;1.52;1.20;;;;;;;16.70;100.00;100075.28;5569103;32;34340;-69
2022/09/09 00:40:22;;;;;;;1.60;1.30;;;;;;;16.68;100.00;100060.47;5569185;32;35099;-69
2022/09/09 00:43:35;;;;;;;2.50;1.33;;;;;;;16.70;100.00;100072.59;5569127;32;34631;-70
2022/09/09 00:46:47;;;;;;;1.30;1.17;;;;;;;16.74;100.00;100081.06;5568945;32;34577;-69
2022/09/09 00:50:29;;;;;;;1.30;1.20;;;;;;;16.71;100.00;100086.81;5568895;32;34533;-69
2022/09/09 00:53:56;;;;;;;4.35;1.20;;;;;;;16.68;100.00;100079.22;5569162;32;34354;-69
2022/09/09 00:57:22;;;;;;;1.80;1.00;;;;;;;16.71;100.00;100084.16;5568867;32;33863;-69
2022/09/09 01:00:52;;;;;;;1.90;1.50;;;;;;;16.67;100.00;100083.75;5568745;32;33882;-69
2022/09/09 01:03:59;;;;;;;1.50;1.40;;;;;;;16.69;100.00;100078.19;5568906;32;34418;-69
2022/09/09 01:07:17;;;;;;;1.73;1.40;;;;;;;16.67;100.00;100090.97;5568352;32;34624;-69
2022/09/09 01:10:30;;;;;;;1.30;1.20;;;;;;;16.76;100.00;100089.69;5568611;32;34676;-69
2022/09/09 01:13:35;;;;;;;2.35;1.80;;;;;;;16.78;100.00;100098.34;5568874;32;34559;-69
2022/09/09 01:16:41;;;;;;;3.78;1.90;;;;;;;16.76;100.00;100095.88;5568394;32;34574;-69
2022/09/09 01:19:44;;;;;;;5.47;1.77;;;;;;;16.77;100.00;100094.84;5568667;32;33882;-69
2022/09/09 01:23:10;;;;;;;4.35;1.70;;;;;;;16.76;100.00;100079.78;5568576;32;33942;-69
2022/09/09 01:26:23;;;;;;;3.87;1.67;;;;;;;16.72;100.00;100085.78;5554829;32;32718;-69
2022/09/09 01:29:28;;;;;;;4.50;1.80;;;;;;;16.67;100.00;100085.63;5571385;32;33775;-68
2022/09/09 01:32:54;;;;;;;4.65;1.62;;;;;;;16.71;100.00;100087.66;5557359;32;33894;-69
2022/09/09 01:36:05;;;;;;;6.00;1.80;;;;;;;16.71;100.00;100094.87;5571288;32;33871;-69
2022/09/09 01:39:08;;;;;;;3.15;1.70;;;;;;;16.71;100.00;100094.87;5570940;32;34571;-69
2022/09/09 01:42:14;;;;;;;4.03;1.80;;;;;;;16.74;100.00;100102.50;5570946;32;34030;-69
2022/09/09 01:45:17;;;;;;;2.75;1.60;;;;;;;16.73;100.00;100104.34;5570839;32;34004;-69
2022/09/09 01:48:23;;;;;;;1.90;1.70;;;;;;;16.75;100.00;100090.75;5570953;32;33841;-69
2022/09/09 01:51:26;;;;;;;1.67;1.58;;;;;;;16.73;100.00;100096.31;5557143;32;34608;-69
2022/09/09 01:54:32;;;;;;;4.05;1.87;;;;;;;16.73;100.00;100092.81;5570937;32;33940;-68
2022/09/09 01:57:41;;;;;;;2.33;1.30;;;;;;;16.73;100.00;100107.03;5570912;32;33785;-69
2022/09/09 02:01:15;;;;;;;2.58;1.50;;;;;;;16.72;100.00;100104.56;5570928;32;34280;-69
2022/09/09 02:04:42;;;;;;;1.58;1.40;;;;;;;16.70;100.00;100115.47;5534095;32;33637;-69
2022/09/09 02:07:55;;;;;;;3.33;1.67;;;;;;;16.71;100.00;100116.28;5556601;32;33148;-69
2022/09/09 02:11:12;;;;;;;2.65;1.48;;;;;;;16.69;100.00;100108.50;5570785;32;33845;-69
2022/09/09 02:14:22;;;;;;;1.87;1.50;;;;;;;16.69;100.00;100103.12;5570684;32;33821;-69
2022/09/09 02:17:30;;;;;;;3.50;1.83;;;;;;;16.65;100.00;100119.84;5557065;32;34552;-69
2022/09/09 02:20:38;;;;;;;4.12;2.03;;;;;;;16.63;100.00;100112.00;5570963;32;34340;-69
2022/09/09 02:23:44;;;;;;;4.53;1.95;;;;;;;16.57;100.00;100115.50;5570728;32;34607;-69
2022/09/09 02:26:52;;;;;;;2.45;2.10;;;;;;;16.52;100.00;100116.16;5570961;32;35234;-70
2022/09/09 02:29:57;;;;;;;2.35;1.90;;;;;;;16.52;100.00;100120.69;5570582;32;34256;-69
2022/09/09 02:33:06;;;;;;;5.40;2.10;;;;;;;16.47;100.00;100120.50;5570613;32;33938;-69
2022/09/09 02:36:16;;;;;;;3.33;2.25;;;;;;;16.51;100.00;100119.84;5570679;32;34558;-69
2022/09/09 02:39:19;;;;;;;3.55;2.17;;;;;;;16.47;100.00;100117.81;5570240;32;34556;-70
2022/09/09 02:42:23;;;;;;;2.92;2.40;;;;;;;16.45;100.00;100118.03;5556525;32;33073;-69
2022/09/09 02:46:06;;;;;;;2.25;1.95;;;;;;;16.44;100.00;100126.28;5570455;32;34586;-69
2022/09/09 02:49:16;;;;;;;4.10;2.50;;;;;;;16.39;100.00;100134.94;5570363;32;33949;-69
2022/09/09 02:52:27;;;;;;;2.90;2.50;;;;;;;16.39;100.00;100128.78;5570757;32;34237;-69
2022/09/09 02:55:48;;;;;;;6.07;2.37;;;;;;;16.36;100.00;100115.81;5556652;32;33102;-68
2022/09/09 02:58:51;;;;;;;5.25;2.53;;;;;;;16.33;100.00;100110.88;5557097;32;33991;-68
2022/09/09 03:01:54;;;;;;;4.37;2.60;;;;;;;16.30;100.00;100119.34;5570217;32;34269;-71
2022/09/09 03:04:58;;;;;;;3.20;2.62;;;;;;;16.33;100.00;100116.22;5570619;32;34314;-69
2022/09/09 03:08:03;;;;;;;5.45;2.80;;;;;;;16.28;100.00;100118.72;5550273;32;33765;-68
2022/09/09 03:11:09;;;;;;;2.70;2.50;;;;;;;16.29;100.00;100113.16;5550782;32;33968;-68
2022/09/09 03:14:12;;;;;;;2.97;2.60;;;;;;;16.26;100.00;100116.25;5549739;32;32694;-70
2022/09/09 03:17:16;;;;;;;3.47;2.67;;;;;;;16.23;100.00;100127.38;5550846;32;33945;-69
2022/09/09 03:20:19;;;;;;;3.10;2.80;;;;;;;16.19;100.00;100131.50;5550697;32;34711;-69
2022/09/09 03:23:24;;;;;;;5.43;2.62;;;;;;;16.20;100.00;100126.97;5549605;32;32946;-69
2022/09/09 03:26:26;;;;;;;3.90;2.58;;;;;;;16.13;100.00;100129.66;5549832;32;34526;-68
2022/09/09 03:29:30;;;;;;;2.95;2.70;;;;;;;16.17;100.00;100132.75;5550598;32;33840;-70
2022/09/09 03:32:34;;;;;;;5.70;2.92;;;;;;;16.09;100.00;100134.63;5550365;32;34072;-69
2022/09/09 03:35:37;;;;;;;6.93;2.90;;;;;;;16.07;100.00;100127.84;5549749;32;33848;-69
2022/09/09 03:38:41;;;;;;;3.00;2.70;;;;;;;16.11;100.00;100137.09;5550700;32;33903;-69
2022/09/09 03:41:47;;;;;;;3.10;2.80;;;;;;;16.00;100.00;100140.41;5550439;32;33889;-70
2022/09/09 03:44:50;;;;;;;4.35;3.22;;;;;;;15.99;100.00;100134.22;5550750;32;34525;-68
2022/09/09 03:47:54;;;;;;;3.58;2.75;;;;;;;15.97;100.00;100138.97;5550743;32;33888;-69
2022/09/09 03:51:00;;;;;;;3.87;2.80;;;;;;;15.99;100.00;100136.06;5549725;32;34736;-69
2022/09/09 03:54:07;;;;;;;3.72;3.00;;;;;;;15.91;100.00;100141.66;5550594;32;33996;-70
2022/09/09 03:57:11;;;;;;;3.62;3.00;;;;;;;15.89;100.00;100141.84;5550294;32;35231;-69
2022/09/09 04:00:14;;;;;;;4.55;2.58;;;;;;;15.97;100.00;100157.72;5550242;32;34650;-70
2022/09/09 04:03:19;;;;;;;3.40;3.00;;;;;;;15.97;100.00;100157.72;5550155;32;34531;-70
2022/09/09 04:06:29;;;;;;;2.92;2.60;;;;;;;15.94;100.00;100152.75;5546590;32;142328;-69
2022/09/09 04:09:33;;;;;;;3.37;2.80;;;;;;;15.95;100.00;100148.22;5555949;32;33878;-68
2022/09/09 04:12:36;;;;;;;2.53;2.30;;;;;;;15.99;100.00;100152.97;5556208;32;35143;-69
2022/09/09 04:15:38;;;;;;;3.00;2.70;;;;;;;15.98;100.00;100153.97;5555876;32;32427;-69
2022/09/09 04:18:43;;;;;;;4.15;2.75;;;;;;;15.96;100.00;100155.22;5569385;32;34743;-69
2022/09/09 04:21:45;;;;;;;3.72;2.60;;;;;;;15.94;100.00;100154.59;5569572;32;33780;-69
2022/09/09 04:24:48;;;;;;;3.62;2.55;;;;;;;15.86;100.00;100157.50;5569775;32;33401;-69
2022/09/09 04:27:56;;;;;;;3.08;2.45;;;;;;;15.90;100.00;100167.59;5555468;32;33716;-69
2022/09/09 04:31:08;;;;;;;2.67;2.47;;;;;;;15.91;100.00;100155.84;5542258;32;33860;-69
2022/09/09 04:34:12;;;;;;;2.90;2.42;;;;;;;15.91;100.00;100157.72;5555039;32;36179;-70
2022/09/09 04:37:15;;;;;;;5.93;2.37;;;;;;;15.89;100.00;100149.06;5555654;32;34194;-69
2022/09/09 04:40:18;;;;;;;2.87;2.40;;;;;;;16.00;100.00;100159.13;5569450;32;33439;-69
2022/09/09 04:43:22;;;;;;;4.15;2.78;;;;;;;15.92;100.00;100160.19;5568992;32;33830;-69
2022/09/09 04:46:25;;;;;;;4.35;2.55;;;;;;;15.95;100.00;100166.97;5568658;32;33813;-70
2022/09/09 04:49:31;;;;;;;3.03;2.22;;;;;;;15.96;100.00;100160.59;5569085;32;33803;-70
2022/09/09 04:52:35;;;;;;;4.68;2.50;;;;;;;15.97;100.00;100143.50;5555232;32;34280;-69
2022/09/09 04:55:38;;;;;;;2.58;2.08;;;;;;;16.07;100.00;100143.91;5568738;32;33992;-68
2022/09/09 04:58:45;;;;;;;2.92;2.17;;;;;;;16.12;100.00;100151.31;5568828;32;33926;-70
2022/09/09 05:01:50;;;;;;;3.15;2.28;;;;;;;16.16;100.00;100145.31;5570039;32;34060;-70
2022/09/09 05:04:53;;;;;;;3.37;2.30;;;;;;;16.20;100.00;100137.69;5571358;32;34481;-68
2022/09/09 05:08:04;;;;;;;6.78;2.90;;;;;;;16.34;100.00;100158.03;5550670;32;34516;-69
2022/09/09 05:11:19;;;;;;;3.15;2.37;;;;;;;16.35;100.00;100162.34;5551519;32;34217;-70
2022/09/09 05:14:22;;;;;;;3.20;2.37;;;;;;;16.41;100.00;100165.00;5551947;32;34548;-69
2022/09/09 05:17:25;;;;;;;3.67;2.78;;;;;;;16.34;100.00;100160.72;5551643;32;34620;-69
2022/09/09 05:20:28;;;;;;;5.20;3.10;;;;;;;16.27;100.00;100160.72;5551384;32;34034;-69
2022/09/09 05:23:31;;;;;;;5.53;2.50;;;;;;;16.36;100.00;100166.69;5551489;32;35165;-70
2022/09/09 05:26:34;;;;;;;4.35;2.50;;;;;;;16.43;100.00;100162.13;5551132;32;33856;-70
2022/09/09 05:29:38;;;;;;;4.12;2.37;;;;;;;16.63;100.00;100164.75;5551382;32;35021;-69
2022/09/09 05:32:41;;;;;;;3.87;2.65;;;;;;;16.70;100.00;100162.87;5551709;32;34339;-70
2022/09/09 05:35:44;;;;;;;2.65;2.20;;;;;;;16.72;100.00;100174.19;5550875;32;34280;-70
2022/09/09 05:38:49;;;;;;;4.50;2.12;;;;;;;16.76;100.00;100180.75;5551152;32;34540;-70
2022/09/09 05:41:52;;;;;;;3.42;2.40;;;;;;;16.85;100.00;100177.62;5550906;32;34126;-69
2022/09/09 05:44:54;;;;;;;3.75;2.40;;;;;;;16.88;100.00;100171.88;5551099;32;33923;-70
2022/09/09 05:47:59;;;;;;;4.43;2.50;;;;;;;16.91;100.00;100184.00;5551248;32;34547;-70
2022/09/09 05:51:04;;;;;;;3.30;2.33;;;;;;;16.92;100.00;100180.28;5550341;32;34044;-68
2022/09/09 05:54:06;;;;;;;4.35;2.35;;;;;;;17.11;100.00;100174.00;5550154;32;33279;-69
2022/09/09 05:57:10;;;;;;;4.25;2.28;;;;;;;17.21;100.00;100171.69;5550398;32;34193;-68
2022/09/09 06:00:14;;;;;;;3.85;2.10;;;;;;;17.35;100.00;100172.41;5550526;32;34530;-70
2022/09/09 06:03:18;;;;;;;2.47;1.87;;;;;;;17.24;100.00;100175.78;5537433;32;33583;-70
2022/09/09 06:06:27;;;;;;;2.15;1.80;;;;;;;17.27;100.00;100170.81;5550508;32;34265;-72
2022/09/09 06:09:30;;;;;;;4.45;2.10;;;;;;;17.50;100.00;100174.78;5569905;32;34227;-69
2022/09/09 06:12:33;;;;;;;3.08;2.00;;;;;;;17.63;100.00;100177.38;5570013;32;33890;-70
2022/09/09 06:15:36;;;;;;;4.18;2.17;;;;;;;17.80;100.00;100183.88;5556198;32;32360;-70
2022/09/09 06:18:40;;;;;;;2.67;1.77;;;;;;;17.89;100.00;100184.41;5569342;32;33864;-68
2022/09/09 06:21:44;;;;;;;3.65;1.80;;;;;;;18.38;100.00;100189.72;5556679;32;34194;-68
2022/09/09 06:24:46;;;;;;;3.70;1.60;;;;;;;18.20;100.00;100179.75;5569717;32;33960;-71
2022/09/09 06:27:49;;;;;;;2.65;1.85;;;;;;;18.13;100.00;100179.00;5554842;32;32368;-69
2022/09/09 06:30:58;;;;;;;3.92;1.73;;;;;;;18.56;100.00;100180.84;5569690;32;34573;-68
2022/09/09 06:34:02;;;;;;;1.50;1.40;;;;;;;18.84;100.00;100182.97;5543474;32;33217;-68
2022/09/09 06:37:06;;;;;;;2.65;1.33;;;;;;;19.53;100.00;100191.34;5570538;32;34014;-66
2022/09/09 06:40:10;;;;;;;3.35;1.40;;;;;;;20.27;96.24;100197.97;5570344;32;33967;-68
2022/09/09 06:43:14;;;;;;;3.08;1.30;;;;;;;20.43;93.50;100191.06;5570496;32;34311;-68
2022/09/09 06:46:23;;;;;;;3.60;1.20;;;;;;;20.77;90.88;100186.66;5555991;32;34022;-69
2022/09/09 06:49:26;;;;;;;3.70;1.17;;;;;;;21.22;87.93;100192.16;5556119;32;34289;-70
2022/09/09 06:52:29;;;;;;;1.10;1.00;;;;;;;20.48;87.29;100195.75;5556103;32;33276;-71
2022/09/09 06:55:32;;;;;;;6.40;1.00;;;;;;;20.01;90.68;100195.75;5556223;32;34294;-70
2022/09/09 06:58:42;;;;;;;1.83;0.80;;;;;;;20.28;89.48;100190.72;5556566;32;35222;-69
2022/09/09 07:01:47;;;;;;;1.40;1.10;;;;;;;20.03;89.36;100184.75;5556143;32;32510;-68
2022/09/09 07:04:58;;;;;;;4.62;1.20;;;;;;;19.66;92.54;100190.31;5543911;32;32404;-70
2022/09/09 07:08:02;;;;;;;2.33;1.05;;;;;;;19.74;91.10;100200.75;5555326;32;32488;-70
2022/09/09 07:11:06;;;;;;;3.67;1.20;;;;;;;19.52;94.17;100205.03;5569778;32;34128;-70
2022/09/09 07:14:15;;;;;;;;;;;;;;;19.15;96.84;100208.84;5556617;32;34004;-69
2022/09/09 07:17:18;;;;;;;2.67;1.27;;;;;;;18.85;100.00;100204.28;5569878;32;34087;-69
2022/09/09 07:20:21;;;;;;;4.18;1.20;;;;;;;18.73;100.00;100202.56;5556241;32;33888;-69
2022/09/09 07:23:25;;;;;;;5.77;1.27;;;;;;;18.47;100.00;100198.28;5569703;32;33776;-69
2022/09/09 07:26:31;;;;;;;1.95;1.30;;;;;;;19.20;100.00;100192.84;5554750;32;33713;-69
2022/09/09 07:29:34;;;;;;;1.65;1.10;;;;;;;20.63;90.07;100199.56;5569492;32;34451;-69
2022/09/09 07:32:37;;;;;;;1.90;1.20;;;;;;;20.71;87.61;100193.84;5569108;32;33886;-69
2022/09/09 07:35:42;;;;;;;3.97;1.60;;;;;;;21.14;85.72;100206.03;5569310;32;34480;-69
2022/09/09 07:38:47;;;;;;;6.85;1.10;;;;;;;20.87;86.45;100213.81;5569622;32;34562;-70
2022/09/09 07:41:50;;;;;;;2.22;1.00;;;;;;;21.69;82.23;100223.22;5570103;32;35097;-70
2022/09/09 07:44:54;;;;;;;2.90;1.10;;;;;;;23.60;72.11;100228.81;5555711;32;33775;-70
2022/09/09 07:47:58;;;;;;;5.62;1.08;;;;;;;23.97;69.92;100228.84;5555778;32;33931;-70
2022/09/09 07:51:16;;;;;;;1.37;1.00;;;;;;;24.46;67.97;100232.19;5556045;32;33090;-71
2022/09/09 07:54:20;;;;;;;3.65;0.80;;;;;;;24.69;64.64;100231.78;5555842;32;33900;-69
2022/09/09 07:57:23;;;;;;;0.85;0.80;;;;;;;24.54;65.27;100231.72;5555642;32;33263;-71
2022/09/09 08:00:28;;;;;;;1.20;0.90;;;;;;;24.56;63.96;100226.00;5570236;32;33924;-70
2022/09/09 08:03:34;;;;;;;2.22;0.90;;;;;;;25.02;63.43;100229.78;5569193;32;34010;-71
2022/09/09 08:06:40;;;;;;;4.05;0.82;;;;;;;25.09;61.47;100224.91;5555335;32;32786;-71
2022/09/09 08:09:44;;;;;;;2.65;1.02;;;;;;;26.39;57.55;100233.47;5569516;32;33284;-70
2022/09/09 08:12:46;;;;;;;1.25;0.80;;;;;;;24.57;63.71;100227.66;5569379;32;34790;-70
2022/09/09 08:16:22;;;;;;;1.83;0.88;;;;;;;25.08;63.05;100232.25;5554967;32;32612;-70
2022/09/09 08:19:24;;;;;;;3.40;0.80;;;;;;;28.06;53.95;100221.69;5555385;32;32953;-70
2022/09/09 08:22:28;;;;;;;3.08;0.70;;;;;;;27.50;51.44;100224.03;5569683;32;33976;-69
2022/09/09 08:25:30;;;;;;;2.80;0.80;;;;;;;27.01;53.02;100237.66;5554837;32;33612;-70
2022/09/09 08:28:34;;;;;;;1.92;0.70;;;;;;;27.22;52.85;100234.53;5568923;32;33938;-70
2022/09/09 08:31:39;;;;;;;3.65;0.77;;;;;;;27.44;52.12;100231.44;5568908;32;34021;-70
2022/09/09 08:34:42;;;;;;;0.62;0.50;;;;;;;28.14;49.88;100228.47;5569208;32;34572;-69
2022/09/09 08:37:53;;;;;;;2.20;0.70;;;;;;;27.99;49.57;100224.75;5557887;32;33860;-70
2022/09/09 08:41:12;;;;;;;6.20;0.80;;;;;;;27.17;52.31;100214.69;5571626;32;33923;-69
2022/09/09 08:44:39;;;;;;;1.23;0.70;;;;;;;28.53;50.32;100220.97;5571299;32;33947;-70
2022/09/09 08:47:49;;;;;;;2.50;0.90;;;;;;;28.99;48.21;100217.72;5571355;32;33845;-70
2022/09/09 08:50:52;;;;;;;1.87;0.93;;;;;;;31.45;43.25;100227.28;5557004;32;33164;-70
2022/09/09 08:54:00;;;;;;;2.00;0.73;;;;;;;31.05;42.67;100235.28;5557055;32;32498;-70
2022/09/09 08:57:14;;;;;;;6.60;0.70;;;;;;;32.11;40.29;100231.19;5571226;32;35261;-69
2022/09/09 09:00:19;;;;;;;1.90;0.77;;;;;;;30.90;43.24;100232.84;5544452;32;32781;-71
2022/09/09 09:03:38;;;;;;;1.77;0.80;;;;;;;27.48;50.34;100215.31;5556692;32;32629;-70
2022/09/09 09:07:17;;;;;;;4.70;0.80;;;;;;;26.27;54.68;100220.19;5571086;32;34328;-70
2022/09/09 09:10:46;;;;;;;3.53;1.00;;;;;;;24.81;58.92;100211.75;5557195;32;34086;-70
2022/09/09 09:14:10;;;;;;;;;;;;;;;23.76;63.00;100211.62;5548017;32;33573;-68
2022/09/09 09:17:18;;;;;;;2.42;0.95;;;;;;;23.03;65.45;100212.22;5571032;32;34631;-69
2022/09/09 09:20:36;;;;;;;1.73;0.60;;;;;;;22.85;69.97;100209.84;5557104;32;32793;-69
2022/09/09 09:23:45;;;;;;;1.50;0.90;;;;;;;22.40;67.32;100204.62;5556928;32;33016;-68
2022/09/09 09:26:49;;;;;;;2.25;0.75;;;;;;;22.38;69.50;100210.28;5570971;32;34587;-69
2022/09/09 09:29:57;;;;;;;0.73;0.57;;;;;;;22.43;67.38;100206.81;5556431;32;34065;-68
2022/09/09 09:33:30;;;;;;;0.85;0.62;;;;;;;22.29;67.06;100195.56;5570762;32;34162;-69
2022/09/09 09:36:44;;;;;;;2.65;0.62;;;;;;;22.20;65.85;100185.41;5570433;32;33982;-68
2022/09/09 09:39:49;;;;;;;0.95;0.73;;;;;;;22.19;66.32;100189.19;5570507;32;34279;-69
2022/09/09 09:43:21;;;;;;;1.45;0.80;;;;;;;22.08;67.98;100185.50;5556555;32;32641;-68
2022/09/09 09:46:26;;;;;;;4.45;0.80;;;;;;;21.98;67.07;100190.75;5557032;32;34663;-68
2022/09/09 09:49:29;;;;;;;2.80;1.27;;;;;;;22.03;68.13;100177.31;5555970;32;32402;-68
2022/09/09 09:52:34;;;;;;;2.70;1.10;;;;;;;22.13;69.19;100179.34;5570616;32;33814;-68
2022/09/09 09:55:52;;;;;;;5.07;0.80;;;;;;;22.33;68.08;100182.34;5557449;32;33921;-69
2022/09/09 09:58:56;;;;;;;1.60;0.70;;;;;;;22.54;68.33;100181.56;5557278;32;34523;-68
2022/09/09 10:02:24;;;;;;;1.85;0.88;;;;;;;22.86;65.65;100187.13;5570566;32;34026;-69
2022/09/09 10:05:31;;;;;;;2.35;0.80;;;;;;;22.63;64.13;100190.88;5556998;32;34871;-70
2022/09/09 10:08:47;;;;;;;1.60;0.80;;;;;;;22.83;63.64;100190.34;5570419;32;34521;-68
2022/09/09 10:12:12;;;;;;;0.57;0.57;;;;;;;23.00;63.82;100187.53;5556936;32;34641;-68
2022/09/09 10:15:45;;;;;;;3.00;0.70;;;;;;;23.22;61.56;100180.22;5556822;32;33772;-69
2022/09/09 10:19:00;;;;;;;1.67;0.70;;;;;;;23.70;59.86;100187.47;5556765;32;35128;-70
2022/09/09 10:22:17;;;;;;;1.00;0.55;;;;;;;24.30;56.92;100187.13;5570153;32;33835;-68
2022/09/09 10:25:55;;;;;;;2.85;0.70;;;;;;;24.52;56.58;100193.19;5570389;32;34564;-67
2022/09/09 10:29:37;;;;;;;2.03;0.73;;;;;;;25.23;53.96;100187.22;5556514;32;33958;-67
2022/09/09 10:32:46;;;;;;;1.40;0.70;;;;;;;25.62;54.72;100188.38;5518086;32;32866;-68
2022/09/09 10:36:17;;;;;;;3.10;0.73;;;;;;;25.89;51.89;100185.41;5570140;32;33982;-68
2022/09/09 10:39:40;;;;;;;1.60;0.60;;;;;;;26.21;50.97;100179.63;5556096;32;32753;-69
2022/09/09 10:42:46;;;;;;;1.40;0.70;;;;;;;26.82;48.11;100177.53;5556579;32;33353;-69
2022/09/09 10:46:20;;;;;;;1.50;0.65;;;;;;;26.44;49.39;100172.78;5570196;32;35200;-68
2022/09/09 10:49:26;;;;;;;1.50;0.90;;;;;;;26.69;49.49;100180.88;5570157;32;33937;-68
2022/09/09 10:52:39;;;;;;;3.05;0.80;;;;;;;28.71;43.47;100186.66;5570414;32;33963;-68
2022/09/09 10:55:51;;;;;;;2.70;0.70;;;;;;;32.26;37.85;100184.91;5570002;32;33882;-69
2022/09/09 10:59:04;;;;;;;2.65;1.23;;;;;;;33.57;32.50;100190.38;5570224;32;34322;-71
2022/09/09 11:02:27;;;;;;;1.42;0.73;;;;;;;36.90;27.91;100175.53;5570293;32;34010;-70
2022/09/09 11:05:41;;;;;;;1.73;0.70;;;;;;;37.84;27.10;100179.50;5569987;32;33917;-69
2022/09/09 11:08:45;;;;;;;0.90;0.45;;;;;;;37.10;25.92;100177.38;5556045;32;33400;-69
2022/09/09 11:11:55;;;;;;;1.23;0.70;;;;;;;36.98;26.42;100186.50;5556368;32;34829;-69
2022/09/09 11:15:13;;;;;;;1.30;0.80;;;;;;;39.51;23.82;100195.41;5556429;32;33917;-71
2022/09/09 11:18:21;;;;;;;0.47;0.40;;;;;;;39.39;23.99;100175.31;5556221;32;32416;-70
2022/09/09 11:21:31;;;;;;;0.70;0.57;;;;;;;38.19;25.55;100165.81;5569671;32;34038;-69
2022/09/09 11:24:40;;;;;;;1.58;0.60;;;;;;;35.98;26.60;100155.91;5556414;32;34372;-71
2022/09/09 11:28:27;;;;;;;1.60;0.50;;;;;;;36.16;26.90;100158.16;5543070;32;32848;-70
2022/09/09 11:31:53;;;;;;;1.40;0.65;;;;;;;37.61;25.98;100163.84;5547945;32;33551;-69
2022/09/09 11:34:59;;;;;;;2.25;0.70;;;;;;;37.15;25.30;100152.22;5560192;32;34028;-70
2022/09/09 11:38:21;;;;;;;1.05;0.50;;;;;;;37.31;25.98;100157.81;5569605;32;35320;-71
2022/09/09 11:41:37;;;;;;;3.53;0.52;;;;;;;38.07;25.80;100160.34;5569497;32;34043;-71
2022/09/09 11:44:41;;;;;;;1.35;0.55;;;;;;;39.20;24.10;100155.87;5569541;32;34192;-71
2022/09/09 11:47:52;;;;;;;2.85;0.50;;;;;;;38.54;24.66;100153.97;5555793;32;33453;-71
2022/09/09 11:51:08;;;;;;;1.67;0.55;;;;;;;40.05;23.02;100144.44;5569545;32;34661;-71
2022/09/09 11:54:30;;;;;;;1.90;0.60;;;;;;;40.41;21.12;100120.84;5569551;32;33995;-70
2022/09/09 11:57:35;;;;;;;1.25;0.40;;;;;;;39.79;22.27;100141.63;5569601;32;34023;-71
2022/09/09 12:00:44;;;;;;;1.92;0.50;;;;;;;37.73;24.46;100131.34;5569936;32;34389;-70
2022/09/09 12:03:50;;;;;;;2.15;0.50;;;;;;;37.51;24.50;100136.63;5556342;32;34570;-71
2022/09/09 12:07:09;;;;;;;3.63;0.70;;;;;;;36.81;25.78;100141.69;5555534;32;33682;-70
2022/09/09 12:10:32;;;;;;;1.60;0.60;;;;;;;36.24;26.02;100125.25;5568971;32;34012;-70
2022/09/09 12:13:36;;;;;;;2.58;0.40;;;;;;;36.38;26.18;100131.22;5569448;32;34723;-70
2022/09/09 12:16:39;;;;;;;1.90;0.55;;;;;;;36.34;25.80;100133.88;5569120;32;34198;-70
2022/09/09 12:19:42;;;;;;;1.15;0.60;;;;;;;33.99;28.77;100134.44;5568930;32;34621;-70
2022/09/09 12:23:04;;;;;;;3.35;0.90;;;;;;;31.98;33.02;100134.06;5542708;32;33596;-70
2022/09/09 12:26:22;;;;;;;0.80;0.60;;;;;;;31.98;32.63;100146.97;5569121;32;33900;-69
2022/09/09 12:29:49;;;;;;;1.00;0.40;;;;;;;31.62;32.79;100136.94;5555224;32;34218;-68
2022/09/09 12:33:08;;;;;;;0.82;0.50;;;;;;;33.11;30.00;100134.06;5569093;32;33928;-67
2022/09/09 12:36:16;;;;;;;0.80;0.50;;;;;;;36.30;25.56;100130.22;5568667;32;35353;-69
2022/09/09 12:39:33;;;;;;;0.90;0.50;;;;;;;35.72;26.43;100117.56;5569188;32;34612;-68
2022/09/09 12:42:40;;;;;;;0.77;0.50;;;;;;;35.46;27.09;100112.28;5555038;32;32567;-69
2022/09/09 12:45:45;;;;;;;0.82;0.40;;;;;;;35.54;26.26;100110.59;5554206;32;32906;-69
2022/09/09 12:48:48;;;;;;;1.50;0.80;;;;;;;38.01;23.06;100114.66;5568826;32;34153;-69
2022/09/09 12:51:50;;;;;;;1.33;0.57;;;;;;;37.86;23.41;100110.72;5569300;32;35181;-68
2022/09/09 12:54:53;;;;;;;0.88;0.40;;;;;;;38.12;23.28;100107.44;5568966;32;34023;-69
2022/09/09 12:57:59;;;;;;;2.00;0.50;;;;;;;38.64;22.82;100107.09;5554902;32;32685;-67
2022/09/09 13:01:08;;;;;;;1.60;0.60;;;;;;;38.07;23.52;100096.62;5568693;32;33933;-69
2022/09/09 13:04:21;;;;;;;0.95;0.50;;;;;;;41.39;19.46;100101.09;5568355;32;34586;-69
2022/09/09 13:07:26;;;;;;;1.33;0.52;;;;;;;43.68;17.82;100098.16;5554259;32;33835;-69
2022/09/09 13:10:35;;;;;;;1.40;0.68;;;;;;;37.64;23.05;100077.31;5554914;32;33278;-69
2022/09/09 13:13:56;;;;;;;2.47;0.40;;;;;;;40.13;20.91;100081.47;5568464;32;33974;-70
2022/09/09 13:17:01;;;;;;;1.15;0.50;;;;;;;39.31;21.94;100073.63;5568262;32;34102;-70
2022/09/09 13:20:06;;;;;;;1.10;0.60;;;;;;;41.94;18.96;100068.59;5554614;32;33008;-70
2022/09/09 13:23:11;;;;;;;1.60;0.50;;;;;;;39.78;21.29;100059.44;5555883;32;33536;-70
2022/09/09 13:26:27;;;;;;;3.70;0.60;;;;;;;41.56;18.98;100066.25;5556313;32;32713;-70
2022/09/09 13:29:32;;;;;;;0.98;0.40;;;;;;;42.22;18.98;100058.88;5557176;32;32310;-69
2022/09/09 13:32:35;;;;;;;0.80;0.50;;;;;;;36.51;24.34;100047.16;5570767;32;34586;-69
2022/09/09 13:35:59;;;;;;;0.77;0.40;;;;;;;34.60;26.17;100046.03;5570932;32;33919;-68
2022/09/09 13:39:03;;;;;;;1.65;0.55;;;;;;;32.72;29.04;100044.37;5556385;32;32499;-69
2022/09/09 13:42:25;;;;;;;2.03;0.70;;;;;;;31.36;30.97;100040.78;5556579;32;32776;-69
2022/09/09 13:45:28;;;;;;;2.20;0.60;;;;;;;30.30;33.89;100036.97;5569987;32;34168;-68
2022/09/09 13:48:31;;;;;;;0.52;0.40;;;;;;;30.14;35.61;100039.22;5556770;32;32327;-68
2022/09/09 13:51:42;;;;;;;1.87;0.62;;;;;;;29.46;34.42;100041.88;5570197;32;34875;-69
2022/09/09 13:54:52;;;;;;;2.35;1.25;;;;;;;28.92;35.44;100035.09;5556623;32;32793;-68
2022/09/09 13:58:04;;;;;;;0.80;0.50;;;;;;;29.27;35.32;100029.03;5570182;32;33992;-69
2022/09/09 14:01:07;;;;;;;2.20;0.70;;;;;;;28.58;36.67;100026.28;5570151;32;34086;-69
2022/09/09 14:04:10;;;;;;;0.50;0.40;;;;;;;29.96;35.33;100021.81;5570172;32;34550;-68
2022/09/09 14:07:15;;;;;;;4.50;0.50;;;;;;;30.31;33.57;100019.41;5555936;32;32489;-69
2022/09/09 14:10:18;;;;;;;3.03;1.08;;;;;;;31.92;30.01;100015.41;5556357;32;34310;-68
2022/09/09 14:13:23;;;;;;;0.80;0.50;;;;;;;32.49;29.82;100006.31;5556497;32;34613;-68
2022/09/09 14:16:27;;;;;;;2.15;0.57;;;;;;;31.20;33.60;99997.62;5570074;32;34056;-68
2022/09/09 14:19:31;;;;;;;0.95;0.50;;;;;;;30.36;35.36;99992.72;5556337;32;32419;-68
2022/09/09 14:22:34;;;;;;;1.67;0.60;;;;;;;28.85;35.84;99991.75;5556043;32;35040;-68
2022/09/09 14:25:39;;;;;;;4.20;0.40;;;;;;;28.90;36.54;99993.63;5570217;32;34071;-68
2022/09/09 14:28:42;;;;;;;2.12;0.75;;;;;;;27.69;38.65;99987.88;5569674;32;33927;-68
2022/09/09 14:32:01;;;;;;;2.83;0.50;;;;;;;27.28;39.76;99992.91;5569841;32;33981;-67
2022/09/09 14:35:04;;;;;;;0.80;0.50;;;;;;;27.56;39.83;99997.53;5569404;32;34188;-68
2022/09/09 14:38:07;;;;;;;3.37;0.70;;;;;;;26.89;39.92;99992.16;5554825;32;32957;-68